Flight Track Log - Related Links

Times and Time Zones

All times are in EDT time to prevent confusion due to time zone crossing. See the N1944E flight status page for this flight to view local times or setup timezone preferences in your user account.

Time Position Orientation Groundspeed Altitude Reporting Facility
EDT Latitude Longitude Course Direction KTS MPH feet Rate Location/Type
Sat 07:21:30 PM 42.9133 -110.7994 34° Northeast 172 198 13,200  Level Salt Lake Center
Sat 07:22:31 PM 42.9514 -110.7658 33° Northeast 162 186 14,100 1,033 Climbing Salt Lake Center
Sat 07:23:32 PM 42.9856 -110.7219 43° Northeast 166 191 15,300 1,024 Climbing Salt Lake Center
Sat 07:24:34 PM 43.0222 -110.6817 39° Northeast 169 194 16,200 829 Climbing Salt Lake Center
Sat 07:25:00 PM 42.9420 -110.6747 36° Northeast  Level FlightAware Approximate
Sat 07:25:35 PM 43.0619 -110.6378 39° Northeast 179 206 17,000  Level Salt Lake Center
Sat 07:26:37 PM 43.1117 -110.5831 39° Northeast 198 228 17,100 49 Climbing Salt Lake Center
Sat 07:27:38 PM 43.1536 -110.5286 43° Northeast 212 244 17,100  Level Salt Lake Center
Sat 07:28:39 PM 43.2067 -110.4667 40° Northeast 222 255 17,100 -49 Level Salt Lake Center
Sat 07:29:41 PM 43.2528 -110.4100 42° Northeast 225 259 17,000  Descending Salt Lake Center
Sat 07:30:42 PM 43.3000 -110.3558 40° Northeast 226 260 17,100  Climbing Salt Lake Center
Sat 07:31:44 PM 43.3467 -110.3006 41° Northeast 223 257 17,000  Descending Salt Lake Center
Sat 07:32:45 PM 43.3939 -110.2483 39° Northeast 219 252 17,100  Climbing Salt Lake Center
Sat 07:33:47 PM 43.4439 -110.2028 33° Northeast 218 251 17,000 -49 Descending Salt Lake Center
Sat 07:34:48 PM 43.5019 -110.1422 37° Northeast 220 253 17,000  Level Salt Lake Center
Sat 07:35:49 PM 43.5464 -110.0894 41° Northeast 214 246 17,000  Level Salt Lake Center
Sat 07:36:51 PM 43.5942 -110.0400 37° Northeast 214 246 17,000  Level Salt Lake Center
Sat 07:37:52 PM 43.6406 -109.9897 38° Northeast 215 247 17,000 -49 Level Salt Lake Center
Sat 07:38:54 PM 43.6892 -109.9458 33° Northeast 211 243 16,900 -49 Descending Salt Lake Center
Sat 07:39:55 PM 43.7331 -109.8914 42° Northeast 212 244 16,900 49 Level Salt Lake Center
Sat 07:40:57 PM 43.7778 -109.8381 41° Northeast 213 245 17,000  Climbing Salt Lake Center
Sat 07:41:58 PM 43.8303 -109.7717 42° Northeast 214 246 16,900 -49 Descending Salt Lake Center
Sat 07:43:00 PM 43.8775 -109.7222 37° Northeast 213 245 16,900 -146 Level Salt Lake Center
Sat 07:44:01 PM 43.9286 -109.6817 30° Northeast 216 249 16,600 -537 Descending Salt Lake Center
Sat 07:45:03 PM 43.9794 -109.6253 39° Northeast 236 272 15,800 -780 Descending Salt Lake Center
Sat 07:46:04 PM 44.0392 -109.5606 38° Northeast 243 280 15,000 -787 Descending Salt Lake Center

Login

Don't have an account? Register now (free) for customized features, flight alerts, and more!